createdAt,value
2019-03-24T00:02:30.652Z,3.42
2019-03-24T00:05:19.447Z,3.40
2019-03-24T00:08:07.613Z,3.00
2019-03-24T00:10:56.372Z,3.35
2019-03-24T00:13:45.021Z,3.05
2019-03-24T00:16:33.778Z,3.50
2019-03-24T00:19:22.741Z,2.70
2019-03-24T00:22:11.357Z,2.90
2019-03-24T00:25:00.350Z,2.72
2019-03-24T00:27:49.096Z,2.87
2019-03-24T00:30:38.440Z,3.20
2019-03-24T00:33:27.014Z,2.70
2019-03-24T00:36:15.517Z,3.35
2019-03-24T00:39:05.223Z,2.55
2019-03-24T00:41:54.230Z,2.90
2019-03-24T00:44:43.137Z,2.65
2019-03-24T00:47:31.712Z,2.70
2019-03-24T00:50:20.628Z,2.87
2019-03-24T00:53:10.617Z,2.92
2019-03-24T00:55:59.398Z,3.45
2019-03-24T00:58:48.144Z,3.52
2019-03-24T01:01:41.343Z,2.92
2019-03-24T01:04:30.347Z,2.87
2019-03-24T01:07:19.552Z,2.90
2019-03-24T01:10:08.147Z,3.10
2019-03-24T01:12:56.912Z,3.12
2019-03-24T01:15:48.062Z,3.83
2019-03-24T01:18:37.250Z,2.92
2019-03-24T01:21:25.701Z,3.00
2019-03-24T01:24:14.784Z,2.98
2019-03-24T01:27:03.385Z,2.72
2019-03-24T01:29:52.444Z,2.70
2019-03-24T01:32:40.946Z,3.15
2019-03-24T01:35:29.273Z,2.70
2019-03-24T01:38:17.611Z,2.83
2019-03-24T01:41:08.107Z,2.65
2019-03-24T01:43:57.094Z,2.87
2019-03-24T01:46:45.311Z,2.30
2019-03-24T01:49:33.288Z,2.80
2019-03-24T01:52:21.845Z,2.80
2019-03-24T01:55:10.212Z,2.98
2019-03-24T01:57:58.626Z,3.02
2019-03-24T02:00:48.099Z,2.80
2019-03-24T02:03:37.190Z,3.35
2019-03-24T02:06:25.754Z,2.92
2019-03-24T02:09:14.072Z,2.85
2019-03-24T02:12:02.241Z,2.80
2019-03-24T02:14:51.368Z,3.02
2019-03-24T02:17:40.700Z,3.25
2019-03-24T02:20:29.105Z,3.10
2019-03-24T02:23:17.882Z,2.83
2019-03-24T02:26:06.588Z,2.77
2019-03-24T02:28:55.377Z,3.10
2019-03-24T02:31:46.433Z,2.70
2019-03-24T02:34:34.561Z,2.80
2019-03-24T02:37:23.372Z,2.60
2019-03-24T02:40:12.149Z,3.25
2019-03-24T02:43:00.329Z,2.70
2019-03-24T02:45:49.213Z,2.40
2019-03-24T02:48:38.175Z,3.37
2019-03-24T02:51:27.229Z,2.65
2019-03-24T02:54:16.015Z,3.42
2019-03-24T02:57:04.175Z,2.37
2019-03-24T02:59:53.113Z,3.00
2019-03-24T03:02:42.064Z,2.77
2019-03-24T03:05:30.725Z,3.47
2019-03-24T03:08:19.947Z,2.67
2019-03-24T03:11:08.619Z,2.80
2019-03-24T03:13:57.875Z,2.58
2019-03-24T03:16:46.347Z,2.80
2019-03-24T03:19:34.909Z,2.65
2019-03-24T03:22:23.411Z,2.90
2019-03-24T03:25:12.570Z,2.80
2019-03-24T03:28:02.545Z,3.10
2019-03-24T03:30:51.289Z,2.58
2019-03-24T03:33:40.243Z,2.72
2019-03-24T03:36:29.108Z,2.50
2019-03-24T03:39:19.468Z,2.92
2019-03-24T03:42:07.708Z,3.17
2019-03-24T03:44:56.842Z,2.90
2019-03-24T03:47:45.461Z,2.90
2019-03-24T03:50:34.153Z,3.02
2019-03-24T03:53:23.134Z,3.00
2019-03-24T03:56:11.758Z,3.00
2019-03-24T03:59:00.453Z,3.02
2019-03-24T04:01:49.161Z,2.83
2019-03-24T04:04:38.206Z,3.05
2019-03-24T04:07:27.096Z,3.08
2019-03-24T04:10:15.640Z,2.55
2019-03-24T04:13:03.702Z,2.85
2019-03-24T04:15:52.998Z,3.02
2019-03-24T04:18:41.900Z,2.60
2019-03-24T04:21:30.313Z,3.30
2019-03-24T04:24:18.782Z,2.92
2019-03-24T04:27:07.266Z,3.20
2019-03-24T04:29:55.650Z,3.02
2019-03-24T04:32:44.541Z,2.77
2019-03-24T04:35:32.858Z,3.10
2019-03-24T04:38:21.141Z,3.12
2019-03-24T04:41:11.305Z,2.50
2019-03-24T04:43:59.657Z,2.50
2019-03-24T04:46:47.896Z,2.83
2019-03-24T04:49:36.917Z,3.22
2019-03-24T04:52:25.488Z,2.52
2019-03-24T04:55:13.998Z,2.30
2019-03-24T04:58:03.608Z,2.55
2019-03-24T05:00:51.815Z,2.87
2019-03-24T05:03:40.584Z,2.52
2019-03-24T05:06:29.423Z,2.83
2019-03-24T05:09:17.472Z,2.50
2019-03-24T05:12:05.716Z,3.10
2019-03-24T05:14:53.891Z,2.35
2019-03-24T05:17:42.170Z,2.72
2019-03-24T05:20:30.387Z,2.85
2019-03-24T05:23:18.574Z,2.85
2019-03-24T05:26:07.218Z,2.52
2019-03-24T05:28:55.389Z,2.67
2019-03-24T05:31:43.810Z,3.30
2019-03-24T05:34:32.585Z,3.40
2019-03-24T05:37:21.688Z,3.47
2019-03-24T05:40:10.221Z,2.62
2019-03-24T05:42:59.199Z,3.40
2019-03-24T05:45:47.976Z,3.30
2019-03-24T05:48:36.714Z,2.98
2019-03-24T05:51:25.041Z,3.00
2019-03-24T05:54:13.148Z,3.00
2019-03-24T05:57:04.109Z,3.10
2019-03-24T05:59:53.257Z,2.83
2019-03-24T06:02:42.104Z,3.02
2019-03-24T06:05:49.396Z,3.35
2019-03-24T06:08:38.356Z,3.02
2019-03-24T06:11:27.086Z,2.83
2019-03-24T06:14:15.404Z,2.30
2019-03-24T06:17:03.761Z,3.12
2019-03-24T06:19:52.833Z,3.10
2019-03-24T06:22:41.365Z,3.25
2019-03-24T06:25:30.435Z,2.98
2019-03-24T06:28:19.451Z,3.05
2019-03-24T06:31:08.197Z,2.90
2019-03-24T06:33:57.024Z,2.22
2019-03-24T06:36:45.533Z,3.25
2019-03-24T06:39:34.056Z,3.08
2019-03-24T06:42:22.421Z,2.77
2019-03-24T06:45:10.693Z,2.52
2019-03-24T06:47:59.812Z,2.60
2019-03-24T06:50:48.552Z,2.98
2019-03-24T06:53:37.435Z,2.50
2019-03-24T06:56:26.615Z,2.58
2019-03-24T06:59:15.313Z,2.45
2019-03-24T07:02:05.366Z,2.62
2019-03-24T07:04:54.032Z,2.70
2019-03-24T07:07:42.990Z,2.65
2019-03-24T07:10:31.945Z,2.58
2019-03-24T07:13:20.375Z,2.75
2019-03-24T07:16:10.916Z,2.77
2019-03-24T07:18:59.401Z,2.70
2019-03-24T07:21:47.856Z,2.40
2019-03-24T07:24:38.347Z,2.58
2019-03-24T07:27:26.365Z,2.37
2019-03-24T07:30:15.252Z,2.70
2019-03-24T07:33:05.373Z,2.92
2019-03-24T07:35:54.148Z,2.80
2019-03-24T07:38:43.715Z,2.72
2019-03-24T07:41:32.435Z,3.10
2019-03-24T07:44:21.572Z,2.70
2019-03-24T07:47:15.144Z,2.98
2019-03-24T07:50:03.675Z,2.87
2019-03-24T07:52:52.574Z,2.83
2019-03-24T07:55:40.882Z,3.27
2019-03-24T07:58:29.964Z,3.02
2019-03-24T08:01:18.747Z,2.60
2019-03-24T08:04:07.761Z,3.30
2019-03-24T08:06:57.232Z,2.58
2019-03-24T08:09:45.620Z,3.02
2019-03-24T08:12:34.121Z,3.02
2019-03-24T08:15:22.360Z,2.17
2019-03-24T08:18:10.660Z,2.67
2019-03-24T08:20:59.324Z,2.75
2019-03-24T08:23:48.328Z,2.77
2019-03-24T08:26:38.462Z,2.83
2019-03-24T08:29:26.705Z,2.60
2019-03-24T08:32:15.775Z,3.22
2019-03-24T08:35:04.743Z,2.83
2019-03-24T08:37:53.550Z,2.87
2019-03-24T08:40:41.904Z,3.12
2019-03-24T08:43:30.498Z,3.15
2019-03-24T08:46:18.817Z,3.37
2019-03-24T08:49:07.467Z,2.70
2019-03-24T08:51:56.379Z,3.17
2019-03-24T08:54:45.021Z,2.98
2019-03-24T08:57:33.123Z,3.20
2019-03-24T09:00:30.479Z,2.80
2019-03-24T09:03:12.681Z,3.00
2019-03-24T09:06:01.299Z,3.27
2019-03-24T09:08:49.723Z,3.22
2019-03-24T09:11:38.542Z,2.70
2019-03-24T09:14:26.875Z,2.98
2019-03-24T09:17:15.717Z,2.95
2019-03-24T09:20:05.215Z,3.80
2019-03-24T09:22:53.906Z,3.55
2019-03-24T09:25:42.860Z,3.10
2019-03-24T09:28:31.024Z,3.27
2019-03-24T09:31:19.202Z,3.50
2019-03-24T09:34:08.257Z,2.70
2019-03-24T09:36:56.532Z,3.15
2019-03-24T09:39:45.288Z,3.35
2019-03-24T09:42:33.396Z,3.42
2019-03-24T09:45:22.132Z,3.20
2019-03-24T09:48:10.893Z,4.17
2019-03-24T09:50:59.255Z,3.62
2019-03-24T09:53:47.629Z,4.30
2019-03-24T09:56:36.167Z,4.58
2019-03-24T09:59:24.668Z,3.60
2019-03-24T10:02:12.741Z,3.85
2019-03-24T10:05:01.346Z,3.95
2019-03-24T10:07:49.847Z,4.20
2019-03-24T10:11:02.811Z,4.10
2019-03-24T10:13:51.467Z,3.72
2019-03-24T10:16:39.779Z,3.47
2019-03-24T10:19:30.536Z,3.85
2019-03-24T10:22:21.139Z,3.75
2019-03-24T10:25:09.450Z,3.77
2019-03-24T10:27:58.012Z,3.87
2019-03-24T10:30:47.929Z,3.87
2019-03-24T10:33:36.199Z,3.50
2019-03-24T10:36:24.478Z,3.60
2019-03-24T10:39:12.458Z,3.35
2019-03-24T10:42:00.536Z,3.42
2019-03-24T10:44:49.672Z,3.85
2019-03-24T10:47:38.501Z,3.58
2019-03-24T10:50:26.934Z,3.55
2019-03-24T10:53:15.990Z,3.75
2019-03-24T10:56:04.062Z,4.53
2019-03-24T10:58:52.244Z,3.67
2019-03-24T11:01:40.832Z,3.77
2019-03-24T11:04:30.513Z,3.12
2019-03-24T11:07:19.036Z,3.55
2019-03-24T11:10:09.201Z,3.70
2019-03-24T11:12:57.745Z,3.30
2019-03-24T11:15:46.322Z,3.52
2019-03-24T11:18:35.527Z,3.58
2019-03-24T11:21:24.190Z,3.92
2019-03-24T11:24:12.858Z,3.60
2019-03-24T11:27:01.798Z,4.05
2019-03-24T11:29:50.004Z,4.25
2019-03-24T11:32:38.731Z,3.75
2019-03-24T11:35:27.246Z,3.92
2019-03-24T11:38:16.160Z,3.17
2019-03-24T11:41:04.389Z,3.80
2019-03-24T11:43:53.655Z,3.25
2019-03-24T11:46:42.997Z,4.15
2019-03-24T11:49:31.377Z,3.60
2019-03-24T11:52:19.373Z,3.77
2019-03-24T11:55:08.471Z,3.37
2019-03-24T11:58:05.602Z,3.42
2019-03-24T12:00:48.048Z,3.55
2019-03-24T12:03:36.656Z,3.70
2019-03-24T12:06:25.588Z,4.03
2019-03-24T12:09:14.370Z,3.50
2019-03-24T12:12:02.344Z,3.30
2019-03-24T12:14:54.138Z,3.77
2019-03-24T12:17:44.087Z,3.55
2019-03-24T12:20:34.900Z,3.33
2019-03-24T12:23:23.844Z,3.67
2019-03-24T12:26:12.861Z,3.25
2019-03-24T12:29:01.363Z,2.95
2019-03-24T12:31:50.126Z,3.25
2019-03-24T12:34:38.336Z,2.77
2019-03-24T12:37:27.372Z,2.67
2019-03-24T12:40:16.101Z,2.95
2019-03-24T12:43:05.112Z,2.67
2019-03-24T12:45:53.669Z,3.25
2019-03-24T12:48:41.824Z,3.25
2019-03-24T12:51:29.873Z,3.08
2019-03-24T12:54:18.989Z,3.35
2019-03-24T12:57:07.471Z,3.20
2019-03-24T12:59:55.837Z,3.33
2019-03-24T13:02:44.657Z,3.40
2019-03-24T13:05:33.502Z,3.60
2019-03-24T13:08:21.920Z,3.35
2019-03-24T13:11:10.070Z,2.77
2019-03-24T13:13:58.131Z,3.30
2019-03-24T13:16:48.800Z,3.02
2019-03-24T13:19:37.570Z,2.50
2019-03-24T13:22:26.246Z,3.08
2019-03-24T13:25:14.972Z,3.10
2019-03-24T13:28:03.008Z,2.52
2019-03-24T13:30:51.590Z,3.40
2019-03-24T13:33:39.644Z,3.12
2019-03-24T13:36:28.188Z,3.30
2019-03-24T13:39:16.700Z,2.98
2019-03-24T13:42:05.275Z,2.87
2019-03-24T13:44:54.344Z,2.87
2019-03-24T13:47:42.947Z,2.90
2019-03-24T13:50:31.927Z,2.80
2019-03-24T13:53:20.582Z,2.35
2019-03-24T13:56:08.876Z,2.35
2019-03-24T13:58:57.211Z,2.40
2019-03-24T14:01:45.817Z,2.72
2019-03-24T14:04:34.325Z,2.65
2019-03-24T14:07:22.955Z,2.87
2019-03-24T14:10:11.280Z,2.62
2019-03-24T14:12:59.758Z,2.37
2019-03-24T14:15:47.786Z,2.90
2019-03-24T14:18:36.202Z,2.52
2019-03-24T14:21:24.678Z,2.45
2019-03-24T14:24:12.761Z,2.42
2019-03-24T14:27:01.303Z,2.60
2019-03-24T14:29:50.375Z,2.70
2019-03-24T14:32:38.880Z,2.30
2019-03-24T14:35:27.516Z,2.50
2019-03-24T14:38:16.476Z,3.05
2019-03-24T14:41:04.940Z,2.40
2019-03-24T14:43:53.469Z,2.58
2019-03-24T14:46:42.822Z,2.70
2019-03-24T14:49:31.660Z,2.60
2019-03-24T14:52:20.081Z,2.67
2019-03-24T14:55:08.100Z,2.40
2019-03-24T14:57:56.103Z,2.37
2019-03-24T15:00:46.867Z,2.72
2019-03-24T15:03:35.700Z,2.33
2019-03-24T15:06:23.949Z,2.83
2019-03-24T15:09:12.673Z,2.70
2019-03-24T15:12:02.795Z,2.42
2019-03-24T15:14:52.213Z,2.65
2019-03-24T15:17:41.844Z,2.75
2019-03-24T15:24:29.881Z,2.70
2019-03-24T15:27:18.611Z,3.08
2019-03-24T15:36:44.164Z,3.05
2019-03-24T15:39:32.860Z,3.40
2019-03-24T15:42:21.638Z,3.12
2019-03-24T15:45:09.828Z,3.00
2019-03-24T15:47:58.459Z,2.67
2019-03-24T15:50:47.096Z,3.42
2019-03-24T15:53:35.800Z,3.40
2019-03-24T15:56:24.272Z,3.10
2019-03-24T15:59:13.092Z,3.77
2019-03-24T16:01:59.683Z,3.17
2019-03-24T16:04:47.752Z,3.80
2019-03-24T16:07:33.617Z,3.80
2019-03-24T16:13:04.853Z,4.05
2019-03-24T16:18:38.988Z,3.65
2019-03-24T16:21:28.038Z,3.67
2019-03-24T16:24:13.621Z,3.92
2019-03-24T16:29:44.739Z,4.00
2019-03-24T16:35:16.303Z,4.20
2019-03-24T16:38:02.431Z,4.00
2019-03-24T16:40:48.412Z,4.22
2019-03-24T16:46:19.588Z,4.65
2019-03-24T16:49:06.213Z,4.03
2019-03-24T16:51:52.115Z,4.40
2019-03-24T16:54:37.804Z,4.28
2019-03-24T16:57:26.397Z,5.17
2019-03-24T17:00:12.301Z,4.60
2019-03-24T17:02:58.137Z,4.87
2019-03-24T17:05:44.278Z,4.83
2019-03-24T17:11:15.637Z,4.67
2019-03-24T17:14:01.693Z,5.45
2019-03-24T17:16:47.823Z,4.85
2019-03-24T17:19:33.646Z,5.05
2019-03-24T17:22:19.399Z,4.42
2019-03-24T17:25:05.816Z,9.80
2019-03-24T17:27:51.913Z,7.47
2019-03-24T17:30:38.189Z,6.12
2019-03-24T17:33:24.345Z,6.03
2019-03-24T17:38:55.754Z,6.30
2019-03-24T17:41:41.540Z,6.22
2019-03-24T17:44:27.296Z,5.67
2019-03-24T17:47:13.295Z,5.65
2019-03-24T17:52:44.503Z,4.83
2019-03-24T17:55:31.148Z,5.67
2019-03-24T17:58:17.455Z,5.40
2019-03-24T18:01:03.609Z,4.83
2019-03-24T18:03:49.657Z,5.05
2019-03-24T18:06:35.504Z,5.33
2019-03-24T18:09:21.397Z,5.12
2019-03-24T18:14:52.617Z,4.95
2019-03-24T18:20:28.718Z,5.28
2019-03-24T18:23:14.721Z,4.58
2019-03-24T18:26:00.678Z,4.40
2019-03-24T18:31:32.215Z,4.22
2019-03-24T18:34:18.124Z,4.70
2019-03-24T18:37:04.026Z,4.62
2019-03-24T18:39:49.981Z,4.00
2019-03-24T18:42:36.417Z,3.98
2019-03-24T18:45:23.712Z,3.67
2019-03-24T18:48:09.658Z,3.58
2019-03-24T18:53:41.056Z,3.72
2019-03-24T18:56:26.986Z,3.08
2019-03-24T18:59:12.834Z,3.37
2019-03-24T19:01:58.825Z,3.75
2019-03-24T19:07:30.056Z,3.08
2019-03-24T19:10:17.457Z,3.42
2019-03-24T19:13:03.577Z,3.30
2019-03-24T19:15:49.627Z,3.27
2019-03-24T19:18:35.710Z,3.25
2019-03-24T19:21:21.732Z,2.95
2019-03-24T19:24:09.028Z,3.58
2019-03-24T19:26:54.867Z,3.10
2019-03-24T19:29:41.337Z,2.83
2019-03-24T19:32:27.367Z,3.15
2019-03-24T19:35:13.741Z,2.92
2019-03-24T19:37:59.524Z,3.10
2019-03-24T19:40:45.764Z,2.83
2019-03-24T19:43:32.580Z,2.87
2019-03-24T19:46:18.207Z,2.72
2019-03-24T19:49:04.140Z,2.98
2019-03-24T19:54:35.436Z,2.98
2019-03-24T20:00:06.883Z,3.00
2019-03-24T20:02:52.642Z,3.08
2019-03-24T20:05:40.699Z,3.08
2019-03-24T20:08:27.516Z,2.83
2019-03-24T20:11:13.352Z,2.83
2019-03-24T20:16:44.708Z,3.10
2019-03-24T20:19:30.562Z,3.35
2019-03-24T20:22:16.305Z,2.90
2019-03-24T20:25:02.761Z,2.92
2019-03-24T20:27:48.701Z,3.17
2019-03-24T20:33:20.092Z,2.90
2019-03-24T20:38:51.440Z,2.87
2019-03-24T20:44:24.341Z,3.50
2019-03-24T20:47:10.732Z,3.60
2019-03-24T20:52:41.819Z,3.25
2019-03-24T20:58:13.173Z,3.52
2019-03-24T21:01:01.568Z,3.35
2019-03-24T21:03:50.540Z,4.03
2019-03-24T21:06:38.042Z,3.75
2019-03-24T21:09:27.380Z,3.33
2019-03-24T21:12:14.563Z,3.62
2019-03-24T21:15:02.538Z,3.65
2019-03-24T21:17:51.002Z,3.40
2019-03-24T21:20:38.432Z,4.62
2019-03-24T21:23:29.785Z,3.80
2019-03-24T21:26:17.709Z,3.92
2019-03-24T21:29:05.491Z,3.58
2019-03-24T21:31:55.259Z,3.60
2019-03-24T21:34:44.656Z,4.03
2019-03-24T21:37:35.301Z,4.17
2019-03-24T21:40:23.544Z,3.65
2019-03-24T21:43:14.116Z,3.70
2019-03-24T21:46:01.742Z,3.83
2019-03-24T21:48:49.446Z,4.22
2019-03-24T21:51:36.462Z,4.37
2019-03-24T21:54:31.675Z,4.03
2019-03-24T21:57:17.973Z,4.10
2019-03-24T22:00:05.077Z,4.10
2019-03-24T22:02:53.620Z,3.65
2019-03-24T22:05:39.888Z,3.55
2019-03-24T22:08:26.081Z,3.60
2019-03-24T22:11:11.947Z,3.85
2019-03-24T22:13:58.923Z,3.75
2019-03-24T22:16:45.285Z,3.83
2019-03-24T22:22:19.501Z,3.60
2019-03-24T22:25:12.014Z,3.47
2019-03-24T22:28:03.538Z,3.40
2019-03-24T22:30:50.189Z,3.40
2019-03-24T22:33:47.089Z,3.90
2019-03-24T22:36:33.748Z,3.70
2019-03-24T22:39:19.628Z,3.58
2019-03-24T22:42:05.470Z,3.62
2019-03-24T22:44:53.635Z,3.42
2019-03-24T22:47:41.088Z,3.87
2019-03-24T22:50:27.065Z,3.50
2019-03-24T22:53:12.876Z,3.35
2019-03-24T22:58:46.764Z,3.60
2019-03-24T23:01:32.722Z,3.65
2019-03-24T23:07:04.156Z,3.10
2019-03-24T23:09:49.966Z,3.55
2019-03-24T23:12:35.981Z,2.83
2019-03-24T23:15:21.769Z,3.45
2019-03-24T23:20:53.134Z,3.00
2019-03-24T23:23:39.272Z,3.05
2019-03-24T23:29:10.524Z,2.90
2019-03-24T23:31:56.731Z,3.67
2019-03-24T23:34:42.571Z,2.72
2019-03-24T23:37:28.275Z,3.42
2019-03-24T23:42:59.541Z,3.40
2019-03-24T23:45:45.550Z,3.20
2019-03-24T23:48:31.373Z,2.87
2019-03-24T23:51:17.198Z,3.30
2019-03-24T23:54:03.838Z,2.90
2019-03-24T23:56:49.661Z,2.67
2019-03-24T23:59:35.866Z,2.80
